Atlanta, Georgia
Traffic Map
Current Weather Conditions
Atlanta, Georgia
Broken Clouds
Broken Clouds
23°
Feels Like: 23°
Wind Chill: 23° Ceiling: 10000
Heat Index: 23° Visibility: 10mi
Dew Point: 22° Wind: 7mph
Humidity: 96% Direction: 220° (SW)
Pressure: 30in Gusts: 0mph
Raw Report DataKATL 240252Z 22006KT 10SM FEW007 SCT012 BKN100 BKN200 23/22 A3000 RMK AO2 SLP150 60032 T02280222 53025
Traffic Incident Summary
Active as of:
Severity:
Category:
InformationThere was an issue retrieving the traffic information for this location. Please try a different location or try again shortly.
Advertisements
Track Severe Weather on mobile